createdAt,value
2023-04-05T00:00:08.008Z,82.99
2023-04-05T00:03:00.370Z,83.57
2023-04-05T00:05:30.226Z,82.65
2023-04-05T00:08:01.213Z,82.76
2023-04-05T00:10:29.922Z,82.41
2023-04-05T00:12:58.647Z,82.64
2023-04-05T00:15:28.453Z,82.40
2023-04-05T00:17:57.651Z,82.79
2023-04-05T00:20:28.644Z,82.89
2023-04-05T00:22:57.284Z,83.23
2023-04-05T00:25:26.145Z,83.81
2023-04-05T00:27:55.429Z,84.28
2023-04-05T00:30:25.261Z,83.97
2023-04-05T00:32:53.474Z,83.75
2023-04-05T00:35:22.703Z,84.68
2023-04-05T00:37:51.203Z,83.95
2023-04-05T00:40:19.763Z,83.63
2023-04-05T00:42:50.836Z,83.24
2023-04-05T00:45:19.278Z,83.13
2023-04-05T00:47:47.785Z,83.08
2023-04-05T00:50:16.658Z,82.85
2023-04-05T00:52:45.399Z,83.08
2023-04-05T00:55:14.275Z,83.02
2023-04-05T00:57:44.665Z,82.83
2023-04-05T01:00:14.873Z,83.71
2023-04-05T01:02:47.459Z,83.70
2023-04-05T01:05:20.138Z,84.54
2023-04-05T01:07:50.892Z,84.78
2023-04-05T01:10:22.200Z,84.01
2023-04-05T01:12:50.692Z,83.78
2023-04-05T01:15:19.176Z,84.07
2023-04-05T01:17:48.666Z,84.82
2023-04-05T01:20:17.527Z,84.77
2023-04-05T01:23:06.455Z,85.03
2023-04-05T01:25:59.482Z,85.12
2023-04-05T01:28:41.002Z,84.87
2023-04-05T01:31:15.130Z,85.74
2023-04-05T01:33:50.178Z,85.21
2023-04-05T01:36:23.593Z,85.34
2023-04-05T01:38:54.108Z,85.73
2023-04-05T01:41:23.712Z,84.94
2023-04-05T01:43:52.989Z,85.47
2023-04-05T01:46:21.488Z,85.64
2023-04-05T01:48:50.120Z,85.74
2023-04-05T01:51:19.500Z,85.82
2023-04-05T01:53:47.893Z,85.76
2023-04-05T01:56:16.194Z,85.61
2023-04-05T01:58:44.583Z,85.43
2023-04-05T02:01:12.938Z,85.30
2023-04-05T02:03:41.532Z,85.80
2023-04-05T02:06:10.306Z,85.62
2023-04-05T02:08:38.741Z,85.61
2023-04-05T02:11:07.319Z,84.85
2023-04-05T02:13:36.496Z,85.59
2023-04-05T02:16:04.990Z,84.87
2023-04-05T02:18:33.452Z,84.66
2023-04-05T02:21:04.975Z,85.24
2023-04-05T02:23:36.527Z,85.62
2023-04-05T02:26:04.992Z,85.64
2023-04-05T02:28:33.892Z,86.18
2023-04-05T02:31:02.827Z,85.63
2023-04-05T02:33:31.063Z,85.96
2023-04-05T02:35:59.890Z,85.78
2023-04-05T02:38:28.494Z,85.54
2023-04-05T02:40:59.052Z,85.49
2023-04-05T02:43:29.500Z,85.07
2023-04-05T02:45:58.421Z,85.17
2023-04-05T02:48:29.986Z,85.55
2023-04-05T02:50:58.368Z,85.75
2023-04-05T02:53:28.345Z,85.91
2023-04-05T02:55:57.609Z,85.67
2023-04-05T02:58:26.956Z,86.17
2023-04-05T03:00:56.623Z,86.63
2023-04-05T03:03:26.472Z,86.45
2023-04-05T03:05:58.759Z,86.22
2023-04-05T03:08:28.387Z,86.09
2023-04-05T03:10:57.146Z,85.69
2023-04-05T03:13:26.460Z,85.77
2023-04-05T03:15:56.369Z,85.46
2023-04-05T03:18:26.292Z,85.91
2023-04-05T03:20:56.298Z,85.69
2023-04-05T03:23:26.638Z,86.05
2023-04-05T03:25:56.865Z,85.52
2023-04-05T03:28:27.312Z,85.37
2023-04-05T03:30:57.848Z,85.38
2023-04-05T03:33:27.051Z,85.46
2023-04-05T03:35:56.395Z,85.66
2023-04-05T03:38:26.371Z,85.47
2023-04-05T03:40:54.703Z,84.95
2023-04-05T03:43:24.485Z,85.10
2023-04-05T03:45:54.332Z,84.95
2023-04-05T03:48:24.214Z,85.05
2023-04-05T03:50:54.321Z,85.29
2023-04-05T03:53:23.721Z,85.21
2023-04-05T03:55:56.583Z,85.41
2023-04-05T03:58:27.698Z,85.16
2023-04-05T04:00:56.844Z,85.98
2023-04-05T04:03:28.274Z,86.13
2023-04-05T04:05:58.142Z,85.82
2023-04-05T04:08:51.770Z,86.46
2023-04-05T04:11:26.911Z,85.69
2023-04-05T04:14:15.641Z,85.22
2023-04-05T04:17:01.752Z,84.62
2023-04-05T04:19:30.975Z,84.61
2023-04-05T04:21:59.416Z,84.02
2023-04-05T04:24:32.190Z,84.16
2023-04-05T04:27:00.996Z,84.53
2023-04-05T04:29:30.693Z,84.79
2023-04-05T04:32:00.610Z,84.47
2023-04-05T04:34:30.055Z,84.09
2023-04-05T04:37:00.767Z,84.03
2023-04-05T04:39:31.096Z,84.41
2023-04-05T04:42:00.886Z,84.26
2023-04-05T04:44:30.826Z,84.24
2023-04-05T04:46:59.444Z,84.01
2023-04-05T04:49:29.865Z,84.09
2023-04-05T04:51:59.130Z,84.14
2023-04-05T04:54:29.016Z,84.33
2023-04-05T04:56:58.249Z,84.30
2023-04-05T04:59:27.800Z,84.45
2023-04-05T05:01:57.639Z,84.27
2023-04-05T05:04:31.199Z,84.22
2023-04-05T05:06:59.936Z,84.64
2023-04-05T05:09:28.752Z,84.83
2023-04-05T05:11:59.068Z,84.91
2023-04-05T05:14:28.063Z,84.99
2023-04-05T05:16:58.543Z,84.94
2023-04-05T05:19:28.422Z,84.79
2023-04-05T05:21:58.132Z,84.85
2023-04-05T05:24:27.368Z,84.54
2023-04-05T05:26:57.665Z,84.44
2023-04-05T05:29:26.890Z,84.47
2023-04-05T05:31:55.628Z,84.22
2023-04-05T05:34:30.616Z,84.10
2023-04-05T05:37:00.421Z,84.11
2023-04-05T05:39:29.270Z,83.90
2023-04-05T05:41:58.477Z,83.86
2023-04-05T05:44:29.343Z,83.89
2023-04-05T05:46:58.307Z,84.28
2023-04-05T05:49:27.782Z,84.52
2023-04-05T05:51:57.353Z,84.14
2023-04-05T05:54:27.928Z,83.99
2023-04-05T05:56:57.444Z,83.95
2023-04-05T05:59:26.253Z,83.69
2023-04-05T06:01:55.612Z,83.60
2023-04-05T06:04:25.480Z,83.13
2023-04-05T06:06:55.515Z,83.30
2023-04-05T06:09:25.231Z,83.28
2023-04-05T06:11:56.971Z,83.09
2023-04-05T06:14:26.214Z,82.79
2023-04-05T06:16:55.260Z,82.40
2023-04-05T06:19:23.657Z,82.92
2023-04-05T06:21:51.955Z,83.53
2023-04-05T06:24:20.661Z,82.75
2023-04-05T06:26:50.549Z,81.98
2023-04-05T06:29:21.145Z,81.80
2023-04-05T06:31:53.939Z,81.82
2023-04-05T06:34:22.510Z,81.69
2023-04-05T06:36:50.781Z,81.83
2023-04-05T06:39:20.439Z,81.90
2023-04-05T06:41:48.998Z,82.26
2023-04-05T06:44:17.275Z,82.02
2023-04-05T06:46:47.399Z,81.99
2023-04-05T06:49:15.810Z,81.72
2023-04-05T06:51:47.347Z,81.89
2023-04-05T06:54:16.509Z,81.77
2023-04-05T06:56:45.653Z,81.71
2023-04-05T06:59:14.084Z,81.86
2023-04-05T07:01:42.601Z,82.02
2023-04-05T07:04:11.101Z,81.84
2023-04-05T07:06:40.234Z,81.69
2023-04-05T07:09:08.604Z,82.00
2023-04-05T07:11:38.419Z,82.39
2023-04-05T07:14:07.201Z,82.26
2023-04-05T07:16:35.875Z,81.90
2023-04-05T07:19:06.727Z,81.26
2023-04-05T07:21:35.020Z,81.80
2023-04-05T07:24:03.589Z,81.35
2023-04-05T07:26:34.424Z,81.33
2023-04-05T07:29:02.721Z,81.59
2023-04-05T07:31:31.503Z,81.79
2023-04-05T07:34:00.678Z,82.45
2023-04-05T07:36:30.314Z,81.48
2023-04-05T07:39:00.388Z,81.82
2023-04-05T07:41:31.826Z,82.26
2023-04-05T07:44:00.303Z,81.23
2023-04-05T07:46:31.090Z,81.22
2023-04-05T07:49:01.548Z,81.33
2023-04-05T07:51:31.035Z,81.36
2023-04-05T07:54:03.076Z,81.53
2023-04-05T07:56:32.609Z,81.55
2023-04-05T07:59:01.401Z,81.77
2023-04-05T08:01:31.028Z,81.34
2023-04-05T08:04:00.064Z,81.04
2023-04-05T08:06:29.568Z,81.02
2023-04-05T08:08:59.477Z,81.36
2023-04-05T08:11:29.618Z,80.63
2023-04-05T08:14:00.316Z,80.74
2023-04-05T08:16:30.771Z,80.35
2023-04-05T08:19:00.881Z,79.88
2023-04-05T08:21:30.104Z,80.36
2023-04-05T08:24:00.939Z,80.07
2023-04-05T08:26:32.266Z,79.92
2023-04-05T08:29:01.068Z,79.59
2023-04-05T08:31:30.920Z,79.88
2023-04-05T08:34:03.637Z,79.86
2023-04-05T08:36:33.333Z,79.90
2023-04-05T08:39:05.670Z,79.71
2023-04-05T08:41:36.254Z,79.27
2023-04-05T08:44:23.593Z,78.88
2023-04-05T08:46:56.438Z,78.13
2023-04-05T08:49:30.122Z,78.45
2023-04-05T08:52:18.673Z,78.72
2023-04-05T08:54:49.644Z,76.79
2023-04-05T08:57:27.867Z,77.00
2023-04-05T08:59:59.769Z,77.25
2023-04-05T09:02:30.010Z,76.20
2023-04-05T09:05:33.822Z,76.18
2023-04-05T09:08:02.108Z,76.85
2023-04-05T09:10:31.536Z,77.43
2023-04-05T09:13:02.843Z,76.94
2023-04-05T09:15:44.158Z,75.70
2023-04-05T09:18:25.581Z,77.06
2023-04-05T09:21:03.676Z,78.35
2023-04-05T09:23:33.957Z,76.90
2023-04-05T09:26:17.036Z,74.20
2023-04-05T09:28:45.314Z,73.75
2023-04-05T09:31:28.649Z,74.53
2023-04-05T09:33:59.980Z,74.69
2023-04-05T09:36:29.842Z,74.53
2023-04-05T09:39:06.372Z,72.60
2023-04-05T09:41:37.293Z,71.50
2023-04-05T09:44:05.681Z,71.46
2023-04-05T09:46:36.699Z,71.19
2023-04-05T09:49:10.118Z,71.47
2023-04-05T09:51:39.195Z,71.50
2023-04-05T09:54:08.045Z,70.81
2023-04-05T09:56:36.865Z,71.68
2023-04-05T09:59:25.014Z,71.68
2023-04-05T10:01:53.844Z,70.87
2023-04-05T10:04:24.353Z,70.20
2023-04-05T10:06:52.994Z,69.72
2023-04-05T10:09:22.089Z,70.33
2023-04-05T10:11:51.009Z,70.57
2023-04-05T10:14:19.979Z,69.69
2023-04-05T10:16:53.318Z,68.05
2023-04-05T10:19:26.736Z,66.81
2023-04-05T10:21:58.896Z,68.97
2023-04-05T10:24:36.226Z,69.95
2023-04-05T10:27:06.406Z,67.87
2023-04-05T10:29:43.786Z,67.12
2023-04-05T10:32:18.251Z,66.06
2023-04-05T10:34:51.165Z,65.29
2023-04-05T10:37:26.514Z,66.34
2023-04-05T10:39:57.795Z,66.63
2023-04-05T10:42:28.572Z,65.04
2023-04-05T10:45:04.010Z,65.18
2023-04-05T10:47:36.930Z,64.24
2023-04-05T10:50:08.624Z,64.00
2023-04-05T10:52:37.118Z,64.88
2023-04-05T10:55:06.369Z,64.84
2023-04-05T10:57:35.228Z,64.24
2023-04-05T11:00:04.962Z,64.91
2023-04-05T11:02:33.576Z,65.70
2023-04-05T11:05:04.716Z,65.30
2023-04-05T11:07:43.685Z,65.53
2023-04-05T11:10:17.525Z,66.28
2023-04-05T11:13:05.716Z,65.44
2023-04-05T11:15:34.653Z,63.31
2023-04-05T11:18:04.417Z,63.64
2023-04-05T11:20:43.671Z,63.42
2023-04-05T11:23:13.440Z,63.15
2023-04-05T11:25:46.499Z,63.96
2023-04-05T11:28:25.623Z,64.14
2023-04-05T11:30:56.225Z,64.00
2023-04-05T11:33:37.610Z,65.13
2023-04-05T11:36:06.500Z,65.33
2023-04-05T11:38:35.229Z,63.76
2023-04-05T11:41:07.602Z,65.04
2023-04-05T11:43:38.224Z,64.69
2023-04-05T11:46:06.900Z,65.46
2023-04-05T11:48:36.081Z,63.57
2023-04-05T11:51:15.994Z,64.33
2023-04-05T11:53:47.787Z,62.56
2023-04-05T11:56:25.992Z,61.06
2023-04-05T11:59:05.257Z,60.30
2023-04-05T12:01:34.001Z,59.64
2023-04-05T12:04:03.556Z,59.20
2023-04-05T12:06:32.396Z,59.07
2023-04-05T12:09:01.501Z,60.20
2023-04-05T12:11:31.653Z,60.50
2023-04-05T12:14:02.202Z,61.17
2023-04-05T12:16:32.202Z,61.42
2023-04-05T12:19:01.637Z,61.34
2023-04-05T12:21:32.277Z,62.08
2023-04-05T12:24:01.816Z,62.77
2023-04-05T12:26:34.055Z,61.38
2023-04-05T12:29:04.920Z,62.37
2023-04-05T12:31:37.800Z,61.93
2023-04-05T12:34:08.621Z,62.70
2023-04-05T12:36:36.964Z,63.06
2023-04-05T12:39:15.979Z,63.50
2023-04-05T12:41:58.397Z,63.58
2023-04-05T12:44:31.749Z,63.84
2023-04-05T12:47:04.812Z,64.23
2023-04-05T12:49:38.119Z,64.04
2023-04-05T12:52:06.615Z,63.90
2023-04-05T12:54:35.162Z,63.69
2023-04-05T12:57:08.348Z,63.02
2023-04-05T12:59:37.310Z,63.01
2023-04-05T13:02:05.756Z,62.91
2023-04-05T13:04:34.107Z,62.83
2023-04-05T13:07:02.848Z,62.85
2023-04-05T13:09:32.327Z,62.66
2023-04-05T13:12:01.835Z,63.00
2023-04-05T13:14:31.000Z,63.04
2023-04-05T13:17:00.132Z,62.59
2023-04-05T13:19:28.263Z,62.61
2023-04-05T13:21:57.443Z,62.49
2023-04-05T13:24:25.889Z,62.00
2023-04-05T13:26:54.562Z,61.49
2023-04-05T13:29:22.803Z,62.48
2023-04-05T13:31:51.032Z,61.89
2023-04-05T13:34:19.362Z,62.06
2023-04-05T13:36:49.021Z,61.80
2023-04-05T13:39:17.370Z,61.99
2023-04-05T13:41:45.891Z,62.18
2023-04-05T13:44:14.424Z,62.35
2023-04-05T13:46:42.817Z,62.88
2023-04-05T13:49:11.442Z,62.73
2023-04-05T13:51:40.869Z,62.71
2023-04-05T13:54:11.305Z,63.57
2023-04-05T13:56:40.091Z,63.61
2023-04-05T13:59:08.604Z,63.84
2023-04-05T14:01:37.041Z,63.77
2023-04-05T14:04:05.484Z,64.06
2023-04-05T14:06:33.917Z,63.89
2023-04-05T14:09:02.631Z,64.34
2023-04-05T14:11:33.795Z,64.46
2023-04-05T14:14:03.318Z,64.53
2023-04-05T14:16:32.816Z,64.11
2023-04-05T14:19:01.959Z,64.34
2023-04-05T14:21:33.898Z,64.25
2023-04-05T14:24:02.487Z,63.88
2023-04-05T14:26:32.094Z,63.56
2023-04-05T14:29:01.647Z,64.00
2023-04-05T14:31:31.017Z,64.44
2023-04-05T14:34:00.700Z,64.44
2023-04-05T14:36:29.159Z,64.49
2023-04-05T14:39:01.758Z,64.39
2023-04-05T14:41:31.011Z,64.42
2023-04-05T14:43:59.330Z,64.66
2023-04-05T14:46:29.234Z,64.83
2023-04-05T14:48:58.635Z,64.98
2023-04-05T14:51:27.710Z,65.08
2023-04-05T14:53:55.995Z,64.98
2023-04-05T14:56:25.323Z,64.58
2023-04-05T14:58:53.718Z,64.66
2023-04-05T15:01:22.319Z,64.83
2023-04-05T15:03:51.997Z,64.93
2023-04-05T15:06:21.665Z,64.93
2023-04-05T15:08:50.882Z,65.15
2023-04-05T15:11:21.056Z,65.22
2023-04-05T15:13:49.789Z,65.35
2023-04-05T15:16:18.384Z,65.23
2023-04-05T15:18:47.021Z,65.64
2023-04-05T15:21:15.479Z,65.75
2023-04-05T15:23:43.930Z,65.84
2023-04-05T15:26:12.758Z,66.22
2023-04-05T15:28:41.360Z,66.15
2023-04-05T15:31:10.170Z,66.39
2023-04-05T15:33:39.140Z,66.44
2023-04-05T15:36:08.124Z,66.62
2023-04-05T15:38:36.666Z,66.89
2023-04-05T15:41:05.586Z,66.91
2023-04-05T15:43:34.050Z,67.20
2023-04-05T15:46:04.766Z,67.23
2023-04-05T15:48:33.470Z,67.37
2023-04-05T15:51:02.480Z,67.27
2023-04-05T15:53:31.751Z,67.40
2023-04-05T15:56:02.980Z,67.35
2023-04-05T15:58:32.231Z,67.38
2023-04-05T16:01:01.454Z,67.57
2023-04-05T16:03:31.926Z,67.69
2023-04-05T16:06:01.325Z,67.65
2023-04-05T16:08:33.119Z,67.81
2023-04-05T16:11:02.418Z,67.83
2023-04-05T16:13:31.664Z,67.74
2023-04-05T16:16:01.481Z,67.80
2023-04-05T16:18:31.438Z,67.78
2023-04-05T16:21:00.929Z,68.06
2023-04-05T16:23:30.905Z,67.93
2023-04-05T16:25:59.670Z,67.99
2023-04-05T16:28:28.877Z,68.23
2023-04-05T16:30:59.478Z,68.05
2023-04-05T16:33:29.155Z,68.28
2023-04-05T16:35:58.504Z,68.34
2023-04-05T16:38:26.985Z,68.37
2023-04-05T16:40:55.579Z,68.53
2023-04-05T16:43:23.879Z,68.77
2023-04-05T16:45:52.549Z,68.89
2023-04-05T16:48:24.653Z,69.22
2023-04-05T16:50:53.524Z,69.28
2023-04-05T16:53:22.037Z,69.60
2023-04-05T16:55:52.254Z,69.65
2023-04-05T16:58:22.489Z,69.96
2023-04-05T17:00:55.086Z,69.79
2023-04-05T17:03:23.960Z,70.08
2023-04-05T17:05:57.827Z,70.13
2023-04-05T17:08:26.811Z,69.86
2023-04-05T17:10:55.561Z,69.71
2023-04-05T17:13:24.097Z,69.61
2023-04-05T17:15:52.615Z,69.65
2023-04-05T17:18:21.154Z,69.39
2023-04-05T17:20:49.953Z,69.63
2023-04-05T17:23:18.425Z,69.59
2023-04-05T17:25:47.051Z,69.74
2023-04-05T17:28:15.786Z,69.96
2023-04-05T17:30:44.389Z,70.01
2023-04-05T17:33:13.307Z,69.93
2023-04-05T17:35:41.973Z,69.88
2023-04-05T17:38:11.182Z,69.97
2023-04-05T17:40:39.859Z,70.14
2023-04-05T17:43:08.931Z,70.28
2023-04-05T17:45:37.893Z,70.50
2023-04-05T17:48:06.674Z,70.44
2023-04-05T17:50:39.817Z,70.50
2023-04-05T17:53:08.386Z,70.48
2023-04-05T17:55:38.909Z,70.32
2023-04-05T17:58:07.403Z,70.35
2023-04-05T18:00:36.000Z,70.26
2023-04-05T18:03:08.204Z,70.57
2023-04-05T18:05:37.738Z,70.70
2023-04-05T18:08:06.264Z,70.59
2023-04-05T18:10:34.704Z,70.64
2023-04-05T18:13:05.656Z,70.87
2023-04-05T18:15:34.033Z,70.57
2023-04-05T18:18:08.108Z,70.82
2023-04-05T18:20:36.866Z,70.69
2023-04-05T18:23:05.813Z,70.79
2023-04-05T18:25:35.730Z,70.65
2023-04-05T18:28:15.611Z,70.67
2023-04-05T18:30:50.774Z,70.59
2023-04-05T18:33:21.751Z,70.75
2023-04-05T18:35:51.121Z,70.98
2023-04-05T18:38:19.985Z,71.13
2023-04-05T18:40:48.743Z,71.23
2023-04-05T18:43:17.458Z,71.27
2023-04-05T18:45:46.152Z,71.44
2023-04-05T18:48:14.897Z,72.10
2023-04-05T18:50:43.574Z,71.63
2023-04-05T18:53:13.357Z,71.61
2023-04-05T18:55:41.881Z,71.86
2023-04-05T18:58:17.364Z,71.76
2023-04-05T19:00:45.953Z,71.84
2023-04-05T19:03:18.051Z,71.74
2023-04-05T19:06:02.175Z,72.06
2023-04-05T19:08:30.929Z,71.93
2023-04-05T19:11:00.157Z,71.73
2023-04-05T19:13:28.827Z,72.08
2023-04-05T19:15:57.865Z,72.41
2023-04-05T19:18:27.384Z,72.17
2023-04-05T19:20:56.796Z,72.50
2023-04-05T19:23:25.816Z,72.49
2023-04-05T19:25:54.810Z,72.52
2023-04-05T19:28:24.040Z,72.70
2023-04-05T19:30:52.685Z,72.63
2023-04-05T19:33:22.399Z,72.67
2023-04-05T19:35:51.507Z,72.69
2023-04-05T19:38:21.576Z,72.46
2023-04-05T19:40:49.992Z,72.41
2023-04-05T19:43:18.684Z,72.50
2023-04-05T19:45:49.983Z,72.51
2023-04-05T19:48:36.144Z,72.62
2023-04-05T19:51:06.162Z,72.61
2023-04-05T19:53:42.116Z,72.47
2023-04-05T19:56:12.460Z,72.62
2023-04-05T19:58:45.043Z,72.58
2023-04-05T20:01:24.704Z,73.13
2023-04-05T20:03:53.711Z,73.11
2023-04-05T20:06:23.525Z,73.05
2023-04-05T20:08:55.369Z,73.18
2023-04-05T20:11:25.666Z,72.64
2023-04-05T20:13:55.849Z,72.63
2023-04-05T20:16:27.134Z,72.61
2023-04-05T20:18:57.034Z,72.62
2023-04-05T20:21:26.526Z,72.60
2023-04-05T20:23:55.824Z,73.04
2023-04-05T20:26:26.552Z,73.29
2023-04-05T20:28:55.668Z,73.42
2023-04-05T20:31:25.473Z,73.50
2023-04-05T20:33:55.087Z,73.67
2023-04-05T20:36:28.981Z,74.08
2023-04-05T20:39:20.916Z,74.34
2023-04-05T20:41:50.446Z,74.31
2023-04-05T20:44:20.281Z,74.44
2023-04-05T20:46:51.357Z,74.60
2023-04-05T20:49:20.929Z,74.44
2023-04-05T20:51:57.627Z,74.21
2023-04-05T20:54:26.550Z,74.16
2023-04-05T20:56:55.047Z,73.98
2023-04-05T20:59:24.373Z,73.83
2023-04-05T21:01:53.214Z,73.99
2023-04-05T21:04:21.852Z,73.94
2023-04-05T21:06:53.919Z,74.06
2023-04-05T21:09:24.892Z,73.92
2023-04-05T21:11:53.414Z,74.05
2023-04-05T21:14:22.192Z,74.08
2023-04-05T21:16:51.000Z,74.21
2023-04-05T21:19:20.183Z,74.23
2023-04-05T21:21:48.765Z,74.18
2023-04-05T21:24:17.154Z,74.30
2023-04-05T21:26:46.375Z,74.32
2023-04-05T21:29:15.531Z,74.46
2023-04-05T21:31:44.021Z,74.49
2023-04-05T21:34:12.513Z,74.54
2023-04-05T21:36:40.942Z,74.33
2023-04-05T21:39:09.962Z,74.58
2023-04-05T21:41:38.633Z,74.33
2023-04-05T21:44:07.050Z,74.21
2023-04-05T21:46:35.868Z,74.27
2023-04-05T21:49:06.445Z,74.40
2023-04-05T21:51:37.227Z,74.31
2023-04-05T21:54:06.673Z,74.23
2023-04-05T21:56:35.683Z,74.42
2023-04-05T21:59:04.737Z,74.48
2023-04-05T22:01:34.161Z,74.24
2023-04-05T22:04:03.534Z,74.61
2023-04-05T22:06:31.965Z,74.16
2023-04-05T22:09:05.285Z,74.07
2023-04-05T22:11:35.908Z,74.01
2023-04-05T22:14:05.473Z,73.80
2023-04-05T22:16:34.842Z,73.72
2023-04-05T22:19:04.110Z,73.89
2023-04-05T22:21:33.698Z,73.75
2023-04-05T22:24:02.405Z,73.81
2023-04-05T22:26:32.088Z,73.71
2023-04-05T22:29:01.909Z,73.74
2023-04-05T22:31:31.388Z,73.60
2023-04-05T22:34:00.612Z,73.59
2023-04-05T22:36:29.166Z,73.69
2023-04-05T22:38:57.610Z,73.84
2023-04-05T22:41:26.561Z,73.86
2023-04-05T22:43:55.378Z,73.84
2023-04-05T22:46:23.974Z,74.07
2023-04-05T22:48:52.618Z,74.28
2023-04-05T22:51:21.405Z,74.37
2023-04-05T22:53:49.717Z,74.29
2023-04-05T22:56:20.892Z,74.21
2023-04-05T22:58:49.510Z,74.20
2023-04-05T23:01:18.087Z,74.25
2023-04-05T23:03:47.102Z,74.25
2023-04-05T23:06:15.781Z,74.38
2023-04-05T23:08:44.051Z,74.37
2023-04-05T23:11:12.391Z,74.52
2023-04-05T23:13:41.104Z,74.41
2023-04-05T23:16:09.893Z,74.49
2023-04-05T23:18:38.289Z,74.52
2023-04-05T23:21:06.959Z,74.79
2023-04-05T23:23:42.550Z,74.72
2023-04-05T23:26:11.022Z,74.99
2023-04-05T23:28:39.383Z,75.15
2023-04-05T23:31:08.046Z,75.30
2023-04-05T23:33:36.466Z,75.40
2023-04-05T23:36:06.161Z,75.47
2023-04-05T23:38:35.459Z,75.53
2023-04-05T23:41:06.964Z,75.41
2023-04-05T23:43:37.584Z,75.48
2023-04-05T23:46:07.309Z,75.63
2023-04-05T23:48:36.235Z,75.73
2023-04-05T23:51:07.300Z,75.77
2023-04-05T23:53:36.419Z,75.66
2023-04-05T23:56:08.236Z,75.46
2023-04-05T23:58:36.714Z,75.41
